Time;durP1;ratioP1;P1;durP2;ratioP2;P2;SDS_P1;SDS_P2;PMS_P1;PMS_P2;Temp;Humidity;BMP_temperature;BMP_pressure;BME280_temperature;BME280_humidity;BME280_pressure;Samples;Min_cycle;Max_cycle;Signal;HPM_P1;HPM_P2
2024/04/10 00:00:12;;;;;;;0.10;0.10;;;9.60;99.90;;;;;;5330946;26;20371;-77
2024/04/10 00:02:42;;;;;;;0.80;0.57;;;9.60;99.90;;;;;;5328087;26;20370;-78
2024/04/10 00:05:09;;;;;;;0.30;0.30;;;9.60;99.90;;;;;;5360889;26;20373;-77
2024/04/10 00:07:35;;;;;;;0.20;0.20;;;9.60;99.90;;;;;;5347726;26;20041;-78
2024/04/10 00:10:02;;;;;;;0.85;0.85;;;9.60;99.90;;;;;;5353852;26;20048;-77
2024/04/10 00:12:28;;;;;;;1.10;0.50;;;9.50;99.90;;;;;;5346627;26;20427;-78
2024/04/10 00:14:55;;;;;;;1.55;1.27;;;9.30;99.90;;;;;;5346146;26;20439;-79
2024/04/10 00:17:21;;;;;;;0.10;0.10;;;9.30;99.90;;;;;;5349861;26;20362;-78
2024/04/10 00:19:51;;;;;;;0.35;0.35;;;9.20;99.90;;;;;;5343359;26;20393;-78
2024/04/10 00:22:18;;;;;;;0.10;0.10;;;9.30;99.90;;;;;;5359849;26;20057;-78
2024/04/10 00:24:44;;;;;;;1.13;0.95;;;9.30;99.90;;;;;;5341576;26;20037;-86
2024/04/10 00:27:11;;;;;;;0.63;0.63;;;9.40;99.90;;;;;;5342400;26;20033;-77
2024/04/10 00:29:37;;;;;;;1.20;0.75;;;9.30;99.90;;;;;;5341861;26;20044;-77
2024/04/10 00:32:04;;;;;;;0.22;0.22;;;9.20;99.90;;;;;;5345783;26;20045;-77
2024/04/10 00:34:30;;;;;;;0.10;0.10;;;9.20;99.90;;;;;;5345674;26;20384;-77
2024/04/10 00:36:57;;;;;;;0.47;0.47;;;9.20;99.90;;;;;;5345827;26;20108;-78
2024/04/10 00:39:23;;;;;;;0.73;0.45;;;9.10;99.90;;;;;;5346317;26;20374;-78
2024/04/10 00:41:49;;;;;;;0.10;0.10;;;9.20;1.00;;;;;;5345444;26;20513;-78
2024/04/10 00:44:15;;;;;;;0.47;0.47;;;9.20;99.90;;;;;;5346174;26;20036;-78
2024/04/10 00:46:41;;;;;;;0.10;0.10;;;9.30;99.90;;;;;;5344600;26;20037;-77
2024/04/10 00:49:07;;;;;;;0.10;0.10;;;9.30;99.90;;;;;;5345170;26;20033;-78
2024/04/10 00:51:34;;;;;;;0.20;0.20;;;9.30;99.90;;;;;;5317217;26;20046;-79
2024/04/10 00:54:02;;;;;;;0.10;0.10;;;9.30;99.90;;;;;;5344684;26;20041;-77
2024/04/10 00:56:28;;;;;;;0.10;0.10;;;9.40;99.90;;;;;;5325111;26;20033;-78
2024/04/10 00:58:58;;;;;;;0.50;0.50;;;9.40;99.90;;;;;;5344780;26;20032;-78
2024/04/10 01:01:24;;;;;;;0.25;0.25;;;9.40;99.90;;;;;;5354515;26;20036;-78
2024/04/10 01:03:50;;;;;;;0.10;0.10;;;9.50;99.90;;;;;;5344523;26;20041;-78
2024/04/10 01:06:16;;;;;;;0.10;0.10;;;9.50;99.90;;;;;;5348365;26;20443;-79
2024/04/10 01:08:42;;;;;;;0.10;0.10;;;9.50;99.90;;;;;;5347328;26;20033;-78
2024/04/10 01:11:10;;;;;;;0.10;0.10;;;9.50;99.90;;;;;;5352986;26;20045;-78
2024/04/10 01:13:36;;;;;;;1.08;1.00;;;9.50;99.90;;;;;;5312673;26;20075;-78
2024/04/10 01:16:03;;;;;;;0.10;0.10;;;9.50;99.90;;;;;;5345873;26;20046;-78
2024/04/10 01:18:29;;;;;;;0.57;0.57;;;9.50;99.90;;;;;;5341207;26;20466;-78
2024/04/10 01:20:56;;;;;;;0.20;0.20;;;9.40;99.90;;;;;;5343325;26;20040;-79
2024/04/10 01:23:22;;;;;;;0.22;0.22;;;9.40;99.90;;;;;;5329147;26;20062;-78
2024/04/10 01:25:48;;;;;;;0.22;0.22;;;9.20;99.90;;;;;;5353373;26;20041;-78
2024/04/10 01:28:15;;;;;;;0.10;0.10;;;9.30;99.90;;;;;;5345776;26;20037;-78
2024/04/10 01:30:41;;;;;;;0.98;0.32;;;9.20;99.90;;;;;;5345428;26;20041;-78
2024/04/10 01:33:07;;;;;;;0.10;0.10;;;9.10;99.90;;;;;;5347763;26;20036;-77
2024/04/10 01:35:33;;;;;;;0.10;0.10;;;9.10;99.90;;;;;;5332480;26;20036;-79
2024/04/10 01:37:59;;;;;;;0.10;0.10;;;9.00;1.00;;;;;;5333049;26;20163;-78
2024/04/10 01:40:28;;;;;;;0.10;0.10;;;9.10;1.00;;;;;;5344097;26;20045;-78
2024/04/10 01:42:54;;;;;;;0.17;0.17;;;9.20;1.00;;;;;;5330025;26;20478;-78
2024/04/10 01:45:20;;;;;;;0.20;0.20;;;9.20;99.90;;;;;;5332086;26;20148;-79
2024/04/10 01:47:47;;;;;;;0.10;0.10;;;9.20;99.90;;;;;;5331765;26;20037;-80
2024/04/10 01:50:13;;;;;;;0.20;0.20;;;9.20;99.90;;;;;;5332420;26;20053;-78
2024/04/10 01:52:39;;;;;;;0.80;0.57;;;9.20;1.00;;;;;;5358796;26;20045;-80
2024/04/10 01:55:06;;;;;;;0.20;0.20;;;9.30;1.00;;;;;;5344893;26;20042;-78
2024/04/10 01:57:32;;;;;;;0.10;0.10;;;9.10;1.00;;;;;;5347533;26;20482;-78
2024/04/10 01:59:59;;;;;;;0.30;0.30;;;9.10;1.00;;;;;;5350215;26;20033;-78
2024/04/10 02:02:25;;;;;;;0.10;0.10;;;9.00;1.00;;;;;;5330656;26;20037;-76
2024/04/10 02:04:51;;;;;;;0.20;0.20;;;9.00;1.00;;;;;;5343708;26;20036;-80
2024/04/10 02:07:17;;;;;;;0.30;0.30;;;9.10;1.00;;;;;;5346815;26;20032;-78
2024/04/10 02:09:43;;;;;;;0.60;0.43;;;9.00;1.00;;;;;;5340251;26;20036;-78
2024/04/10 02:12:09;;;;;;;0.10;0.10;;;9.00;1.00;;;;;;5351526;26;20065;-78
2024/04/10 02:14:35;;;;;;;0.85;0.75;;;9.10;1.00;;;;;;5340847;26;20383;-79
2024/04/10 02:17:02;;;;;;;0.30;0.30;;;9.00;1.00;;;;;;5350555;26;20029;-78
2024/04/10 02:19:28;;;;;;;0.50;0.50;;;8.90;1.00;;;;;;5342734;26;20470;-77
2024/04/10 02:21:54;;;;;;;0.30;0.30;;;8.90;1.00;;;;;;5368543;26;20037;-78
2024/04/10 02:24:20;;;;;;;0.10;0.10;;;8.80;1.00;;;;;;5344199;26;20036;-78
2024/04/10 02:26:47;;;;;;;0.10;0.10;;;8.70;1.00;;;;;;5343089;26;20064;-89
2024/04/10 02:29:14;;;;;;;0.10;0.10;;;8.70;1.00;;;;;;5348351;26;20029;-78
2024/04/10 02:31:40;;;;;;;0.70;0.70;;;8.70;1.00;;;;;;5354775;26;20036;-78
2024/04/10 02:34:06;;;;;;;8.50;0.95;;;8.70;1.00;;;;;;5343766;26;20036;-78
2024/04/10 02:36:32;;;;;;;0.35;0.35;;;8.60;1.00;;;;;;5344274;26;20029;-78
2024/04/10 02:38:58;;;;;;;0.20;0.20;;;8.50;1.00;;;;;;5358945;26;20036;-78
2024/04/10 02:41:25;;;;;;;0.35;0.35;;;8.50;1.00;;;;;;5356707;26;20036;-78
2024/04/10 02:43:51;;;;;;;0.22;0.22;;;8.50;1.00;;;;;;5333388;26;20037;-78
2024/04/10 02:46:17;;;;;;;0.13;0.13;;;8.50;1.00;;;;;;5384892;26;20041;-79
2024/04/10 02:48:44;;;;;;;0.47;0.17;;;8.40;1.00;;;;;;5355946;26;20332;-78
2024/04/10 02:51:11;;;;;;;0.30;0.30;;;8.40;1.00;;;;;;5346736;26;20044;-77
2024/04/10 02:53:37;;;;;;;0.20;0.20;;;8.40;1.00;;;;;;5343525;26;20368;-79
2024/04/10 02:56:04;;;;;;;0.25;0.25;;;8.30;1.00;;;;;;5346961;26;20036;-78
2024/04/10 02:58:30;;;;;;;0.20;0.20;;;8.10;1.00;;;;;;5356756;26;20044;-78
2024/04/10 03:00:57;;;;;;;0.10;0.10;;;8.10;1.00;;;;;;5349550;26;20040;-78
2024/04/10 03:03:24;;;;;;;0.15;0.15;;;8.10;1.00;;;;;;5343343;26;20397;-78
2024/04/10 03:06:04;;;;;;;1.75;0.73;;;8.00;1.00;;;;;;5356771;26;20041;-80
2024/04/10 03:08:32;;;;;;;0.38;0.38;;;7.80;1.00;;;;;;5324890;26;20037;-77
2024/04/10 03:10:58;;;;;;;0.22;0.22;;;7.70;25.10;;;;;;5343037;26;20383;-78
2024/04/10 03:13:25;;;;;;;0.28;0.28;;;7.70;35.60;;;;;;5341593;26;20363;-77
2024/04/10 03:15:51;;;;;;;0.17;0.17;;;7.70;76.40;;;;;;5332906;26;20049;-78
2024/04/10 03:18:17;;;;;;;0.17;0.17;;;7.60;68.80;;;;;;5343154;26;20048;-78
2024/04/10 03:20:44;;;;;;;0.32;0.32;;;7.50;94.30;;;;;;5341079;26;20044;-77
2024/04/10 03:23:10;;;;;;;0.10;0.10;;;7.40;99.90;;;;;;5343471;26;20034;-78
2024/04/10 03:25:36;;;;;;;0.10;0.10;;;7.40;99.90;;;;;;5349008;26;20040;-78
2024/04/10 03:28:03;;;;;;;0.20;0.20;;;7.40;99.90;;;;;;5330190;26;20032;-78
2024/04/10 03:30:29;;;;;;;0.20;0.20;;;7.30;99.90;;;;;;5332898;26;20037;-78
2024/04/10 03:32:55;;;;;;;0.15;0.15;;;7.20;99.90;;;;;;5343378;26;20052;-78
2024/04/10 03:35:22;;;;;;;0.35;0.35;;;7.10;99.90;;;;;;5327412;26;20038;-78
2024/04/10 03:37:49;;;;;;;0.20;0.20;;;7.10;99.90;;;;;;5315368;26;20503;-78
2024/04/10 03:40:16;;;;;;;0.10;0.10;;;7.10;99.90;;;;;;5340860;26;20037;-78
2024/04/10 03:42:43;;;;;;;0.77;0.40;;;7.10;99.90;;;;;;5343248;26;20159;-79
2024/04/10 03:45:12;;;;;;;0.30;0.30;;;6.90;99.90;;;;;;5348283;26;20046;-78
2024/04/10 03:47:41;;;;;;;0.10;0.10;;;6.90;99.90;;;;;;5341390;26;20045;-80
2024/04/10 03:50:08;;;;;;;0.40;0.40;;;6.80;99.90;;;;;;5363160;26;20117;-81
2024/04/10 03:52:34;;;;;;;0.68;0.68;;;6.70;99.90;;;;;;5343148;26;20048;-78
2024/04/10 03:55:00;;;;;;;2.95;2.17;;;6.60;99.90;;;;;;5333050;26;20037;-81
2024/04/10 03:57:28;;;;;;;8.75;0.57;;;6.60;99.90;;;;;;5341054;26;20038;-81
2024/04/10 03:59:54;;;;;;;0.20;0.20;;;6.60;99.90;;;;;;5335221;26;20036;-81
2024/04/10 04:02:22;;;;;;;0.50;0.32;;;6.50;99.90;;;;;;5344264;26;20049;-79
2024/04/10 04:04:48;;;;;;;0.85;0.80;;;6.50;99.90;;;;;;5339390;26;20033;-79
2024/04/10 04:07:15;;;;;;;0.10;0.10;;;6.60;99.90;;;;;;5333833;26;20033;-80
2024/04/10 04:09:41;;;;;;;0.35;0.35;;;6.60;99.90;;;;;;5348899;26;20406;-79
2024/04/10 04:12:09;;;;;;;1.38;0.73;;;6.60;99.90;;;;;;5342396;26;20033;-80
2024/04/10 04:14:35;;;;;;;5.60;1.08;;;6.70;1.00;;;;;;5331707;26;20008;-80
2024/04/10 04:17:01;;;;;;;0.10;0.10;;;6.70;99.90;;;;;;5342168;26;20485;-79
2024/04/10 04:19:29;;;;;;;0.30;0.30;;;6.70;99.90;;;;;;5344035;26;20504;-80
2024/04/10 04:21:55;;;;;;;0.85;0.73;;;6.70;99.90;;;;;;5342451;26;20037;-83
2024/04/10 04:24:22;;;;;;;0.20;0.20;;;6.70;99.90;;;;;;5344219;26;20033;-80
2024/04/10 04:26:52;;;;;;;1.10;0.57;;;6.80;99.90;;;;;;5342216;26;20061;-83
2024/04/10 04:29:18;;;;;;;0.10;0.10;;;6.90;99.90;;;;;;5336117;26;20080;-80
2024/04/10 04:31:45;;;;;;;1.33;0.73;;;6.90;99.90;;;;;;5323490;26;20029;-80
2024/04/10 04:34:16;;;;;;;0.10;0.10;;;6.90;99.90;;;;;;5332021;26;20033;-80
2024/04/10 04:36:42;;;;;;;0.45;0.35;;;6.90;99.90;;;;;;5352973;26;20032;-80
2024/04/10 04:39:09;;;;;;;0.10;0.10;;;6.90;99.90;;;;;;5342112;26;20041;-80
2024/04/10 04:41:36;;;;;;;0.68;0.68;;;6.80;99.90;;;;;;5347684;26;20029;-80
2024/04/10 04:44:02;;;;;;;0.20;0.20;;;6.90;99.90;;;;;;5339584;26;20032;-79
2024/04/10 04:46:29;;;;;;;0.10;0.10;;;7.00;99.90;;;;;;5349087;26;20032;-80
2024/04/10 04:48:55;;;;;;;0.17;0.17;;;7.00;99.90;;;;;;5352122;26;20028;-84
2024/04/10 04:51:21;;;;;;;0.20;0.20;;;7.30;99.90;;;;;;5350224;26;20032;-79
2024/04/10 04:53:48;;;;;;;0.30;0.30;;;7.30;99.90;;;;;;5344632;26;20033;-80
2024/04/10 04:56:14;;;;;;;0.17;0.17;;;7.20;99.90;;;;;;5336334;26;20725;-81
2024/04/10 04:58:40;;;;;;;0.52;0.52;;;7.20;99.90;;;;;;5354605;26;20037;-79
2024/04/10 05:01:07;;;;;;;0.63;0.63;;;7.10;99.90;;;;;;5354850;26;20041;-83
2024/04/10 05:06:18;;;;;;;0.40;0.38;;;7.00;99.90;;;;;;5338403;26;20037;-79
2024/04/10 05:08:44;;;;;;;0.10;0.10;;;7.00;99.90;;;;;;5341893;26;20032;-79
2024/04/10 05:11:10;;;;;;;0.57;0.57;;;6.70;99.90;;;;;;5336345;26;20029;-77
2024/04/10 05:13:39;;;;;;;13.15;0.75;;;6.50;99.90;;;;;;5343174;26;20038;-79
2024/04/10 05:16:06;;;;;;;0.25;0.20;;;6.40;1.00;;;;;;5345096;26;20012;-80
2024/04/10 05:18:32;;;;;;;0.10;0.10;;;6.20;1.00;;;;;;5342848;26;20438;-79
2024/04/10 05:20:58;;;;;;;0.10;0.10;;;6.10;1.00;;;;;;5350613;26;20036;-80
2024/04/10 05:23:25;;;;;;;0.20;0.20;;;6.00;1.00;;;;;;5349055;26;20052;-80
2024/04/10 05:25:53;;;;;;;0.22;0.22;;;6.00;1.00;;;;;;5349278;26;20045;-79
2024/04/10 05:28:23;;;;;;;0.10;0.10;;;5.90;1.00;;;;;;5347098;26;20478;-80
2024/04/10 05:30:49;;;;;;;0.10;0.10;;;5.70;4.60;;;;;;5341192;26;20025;-79
2024/04/10 05:33:15;;;;;;;0.52;0.32;;;5.60;31.70;;;;;;5334744;26;20045;-79
2024/04/10 05:35:41;;;;;;;0.15;0.15;;;5.60;64.40;;;;;;5347894;26;20032;-79
2024/04/10 05:38:07;;;;;;;1.13;0.88;;;5.70;95.30;;;;;;5351561;26;20044;-79
2024/04/10 05:40:34;;;;;;;0.45;0.45;;;6.10;94.50;;;;;;5346448;26;20032;-79
2024/04/10 05:43:01;;;;;;;0.77;0.60;;;6.60;19.70;;;;;;5340113;26;20028;-82
2024/04/10 05:45:27;;;;;;;3.55;1.13;;;7.20;1.00;;;;;;5341292;26;20032;-80
2024/04/10 05:47:54;;;;;;;0.55;0.55;;;7.50;99.90;;;;;;5356405;26;20053;-81
2024/04/10 05:50:22;;;;;;;0.20;0.20;;;7.80;99.90;;;;;;5344412;26;20041;-81
2024/04/10 05:52:48;;;;;;;0.73;0.68;;;8.20;99.90;;;;;;5345335;26;20029;-82
2024/04/10 05:55:15;;;;;;;0.20;0.20;;;8.50;99.90;;;;;;5343633;26;20056;-78
2024/04/10 05:57:41;;;;;;;0.10;0.10;;;8.50;85.50;;;;;;5340846;26;20367;-79
2024/04/10 06:00:09;;;;;;;0.20;0.20;;;8.40;90.20;;;;;;5341422;26;20105;-81
2024/04/10 06:02:38;;;;;;;0.90;0.52;;;8.60;57.50;;;;;;5354229;26;20036;-80
2024/04/10 06:05:06;;;;;;;0.25;0.25;;;8.80;27.00;;;;;;5347345;26;20069;-81
2024/04/10 06:07:35;;;;;;;0.17;0.17;;;9.00;17.40;;;;;;5340342;26;20033;-82
2024/04/10 06:10:01;;;;;;;0.22;0.22;;;9.20;1.00;;;;;;5339679;26;20033;-78
2024/04/10 06:12:27;;;;;;;0.13;0.13;;;9.30;1.00;;;;;;5355126;26;20369;-82
2024/04/10 06:14:55;;;;;;;0.35;0.35;;;9.50;1.00;;;;;;5338666;26;20041;-81
2024/04/10 06:17:22;;;;;;;1.75;0.98;;;9.60;1.00;;;;;;5351165;26;20052;-81
2024/04/10 06:19:48;;;;;;;0.30;0.30;;;9.90;1.00;;;;;;5343332;26;20032;-81
2024/04/10 06:22:15;;;;;;;0.20;0.20;;;10.20;1.00;;;;;;5338860;26;20029;-83
2024/04/10 06:24:45;;;;;;;1.85;0.85;;;10.20;1.00;;;;;;5342083;26;20036;-80
2024/04/10 06:27:12;;;;;;;0.30;0.30;;;10.20;1.00;;;;;;5351910;26;20033;-80
2024/04/10 06:29:45;;;;;;;0.60;0.60;;;9.90;99.90;;;;;;5353385;26;20410;-78
2024/04/10 06:32:13;;;;;;;0.20;0.20;;;9.80;1.00;;;;;;5332361;26;20033;-81
2024/04/10 06:34:40;;;;;;;1.65;0.50;;;10.00;1.00;;;;;;5339742;26;20036;-78
2024/04/10 06:37:06;;;;;;;0.40;0.40;;;10.10;99.90;;;;;;5331091;26;20462;-79
2024/04/10 06:39:33;;;;;;;6.97;2.20;;;9.90;1.00;;;;;;5343830;26;20509;-78
2024/04/10 06:42:00;;;;;;;1.20;0.55;;;10.10;1.00;;;;;;5345165;26;20033;-79
2024/04/10 06:44:26;;;;;;;0.52;0.52;;;10.00;99.90;;;;;;5335231;26;20036;-79
2024/04/10 06:46:52;;;;;;;0.10;0.10;;;10.20;1.00;;;;;;5343260;26;20044;-78
2024/04/10 06:49:19;;;;;;;0.10;0.10;;;10.50;99.90;;;;;;5350594;26;20124;-78
2024/04/10 06:51:45;;;;;;;1.08;0.98;;;10.20;99.90;;;;;;5346209;26;20048;-79
2024/04/10 06:54:11;;;;;;;1.27;0.32;;;10.10;99.90;;;;;;5336522;26;20041;-78
2024/04/10 06:56:38;;;;;;;0.20;0.20;;;10.00;99.90;;;;;;5340761;26;20037;-81
2024/04/10 06:59:04;;;;;;;0.75;0.75;;;9.90;99.90;;;;;;5341227;26;20028;-86
2024/04/10 07:01:30;;;;;;;0.47;0.47;;;10.10;99.90;;;;;;5347366;26;20041;-85
2024/04/10 07:03:57;;;;;;;1.10;0.73;;;10.20;99.90;;;;;;5354855;26;20164;-87
2024/04/10 07:06:23;;;;;;;0.30;0.30;;;10.60;99.90;;;;;;5356082;26;20499;-87
2024/04/10 07:11:44;;;;;;;0.57;0.57;;;10.70;99.90;;;;;;5545874;25;20328;-87
2024/04/10 07:14:12;;;;;;;0.75;0.75;;;10.80;99.90;;;;;;5532131;25;20373;-82
2024/04/10 07:16:38;;;;;;;0.20;0.20;;;10.60;99.90;;;;;;5525192;25;20380;-85
2024/04/10 07:19:06;;;;;;;0.40;0.40;;;10.30;99.90;;;;;;5528517;25;20038;-84
2024/04/10 07:21:34;;;;;;;0.55;0.55;;;10.60;99.90;;;;;;5535675;25;20486;-85
2024/04/10 07:24:02;;;;;;;0.10;0.10;;;10.90;99.90;;;;;;5537370;25;20040;-81
2024/04/10 07:26:28;;;;;;;0.30;0.30;;;11.10;99.90;;;;;;5520014;25;20044;-82
2024/04/10 07:28:55;;;;;;;0.30;0.30;;;10.80;99.90;;;;;;5512339;25;20041;-82
2024/04/10 07:31:33;;;;;;;0.22;0.22;;;10.80;99.90;;;;;;5527209;25;20063;-84
2024/04/10 07:34:00;;;;;;;0.38;0.35;;;11.10;99.90;;;;;;5530771;25;20510;-80
2024/04/10 07:36:26;;;;;;;0.10;0.10;;;11.10;99.90;;;;;;5527898;25;20025;-84
2024/04/10 07:38:54;;;;;;;1.05;0.50;;;11.30;99.90;;;;;;5535037;25;20471;-84
2024/04/10 07:41:21;;;;;;;0.30;0.30;;;11.20;99.90;;;;;;5520118;25;20381;-85
2024/04/10 07:43:47;;;;;;;0.10;0.10;;;11.40;99.90;;;;;;5526138;25;20534;-83
2024/04/10 07:46:14;;;;;;;0.10;0.10;;;11.60;99.90;;;;;;5533246;25;20033;-82
2024/04/10 07:48:42;;;;;;;0.75;0.75;;;11.40;99.90;;;;;;5536421;25;20382;-83
2024/04/10 07:51:10;;;;;;;0.20;0.20;;;11.30;99.90;;;;;;5532966;25;20029;-83
2024/04/10 07:53:38;;;;;;;0.50;0.50;;;11.80;99.90;;;;;;5523161;25;20033;-83
2024/04/10 07:56:07;;;;;;;0.40;0.40;;;11.90;99.90;;;;;;5530961;25;20513;-84
2024/04/10 07:58:34;;;;;;;0.20;0.20;;;12.20;99.90;;;;;;5531006;25;20037;-82
2024/04/10 08:01:01;;;;;;;2.05;0.95;;;12.00;99.90;;;;;;5504685;25;20042;-80
2024/04/10 08:03:28;;;;;;;0.10;0.10;;;11.70;99.90;;;;;;5535782;25;20359;-83
2024/04/10 08:05:55;;;;;;;0.20;0.20;;;12.00;99.90;;;;;;5513408;25;20497;-84
2024/04/10 08:08:22;;;;;;;0.20;0.20;;;12.10;99.90;;;;;;5525394;25;20029;-82
2024/04/10 08:11:04;;;;;;;1.08;0.50;;;11.50;99.90;;;;;;5532824;25;20033;-82
2024/04/10 08:13:31;;;;;;;0.20;0.20;;;11.40;99.90;;;;;;5535286;25;20029;-80
2024/04/10 08:16:07;;;;;;;0.40;0.40;;;10.90;99.90;;;;;;5529091;25;20061;-83
2024/04/10 08:18:37;;;;;;;0.10;0.10;;;10.80;99.90;;;;;;5485281;25;20037;-81
2024/04/10 08:21:06;;;;;;;0.82;0.32;;;11.30;99.90;;;;;;5485056;26;20045;-83
2024/04/10 08:23:33;;;;;;;0.38;0.38;;;11.70;99.90;;;;;;5519449;26;20034;-84
2024/04/10 08:26:08;;;;;;;0.20;0.20;;;11.90;99.90;;;;;;5517463;26;20033;-84
2024/04/10 08:28:37;;;;;;;0.40;0.38;;;12.10;99.90;;;;;;5514964;26;20038;-82
2024/04/10 08:31:03;;;;;;;5.65;0.63;;;12.10;99.90;;;;;;5506049;26;20038;-82
2024/04/10 08:33:30;;;;;;;1.02;0.68;;;11.70;99.90;;;;;;5482942;26;20486;-83
2024/04/10 08:35:59;;;;;;;0.90;0.85;;;11.40;99.90;;;;;;5512717;26;20037;-85
2024/04/10 08:38:26;;;;;;;0.63;0.63;;;11.40;99.90;;;;;;5521443;26;20046;-83
2024/04/10 08:40:54;;;;;;;0.10;0.10;;;11.40;99.90;;;;;;5484818;26;20039;-82
2024/04/10 08:43:22;;;;;;;0.20;0.20;;;12.00;99.90;;;;;;5501935;26;20034;-84
2024/04/10 08:45:49;;;;;;;3.70;1.00;;;12.50;99.90;;;;;;5512287;26;20041;-83
2024/04/10 08:48:16;;;;;;;0.20;0.20;;;12.50;99.90;;;;;;5513193;26;20029;-84
2024/04/10 08:50:43;;;;;;;0.90;0.50;;;12.80;99.90;;;;;;5522983;26;20046;-86
2024/04/10 08:53:13;;;;;;;1.25;0.82;;;13.30;99.90;;;;;;5520307;26;20752;-83
2024/04/10 08:55:46;;;;;;;2.08;0.43;;;13.20;99.90;;;;;;5496953;26;20065;-83
2024/04/10 08:58:12;;;;;;;0.22;0.22;;;12.70;99.90;;;;;;5484442;26;20164;-83
2024/04/10 09:00:43;;;;;;;1.27;0.25;;;12.50;99.90;;;;;;5518600;26;20034;-83
2024/04/10 09:03:13;;;;;;;1.27;0.85;;;12.40;99.90;;;;;;5516469;26;20042;-83
2024/04/10 09:05:39;;;;;;;6.03;0.80;;;12.80;99.90;;;;;;5516129;26;20034;-85
2024/04/10 09:08:07;;;;;;;0.20;0.20;;;13.40;99.90;;;;;;5485320;26;20050;-79
2024/04/10 09:10:34;;;;;;;6.68;0.55;;;14.00;99.90;;;;;;5512020;26;20029;-83
2024/04/10 09:13:08;;;;;;;0.20;0.20;;;14.50;99.90;;;;;;5519841;26;20387;-84
2024/04/10 09:15:36;;;;;;;0.70;0.70;;;14.00;99.90;;;;;;5512638;26;20387;-80
2024/04/10 09:18:04;;;;;;;0.38;0.38;;;14.40;99.90;;;;;;5516937;26;20034;-81
2024/04/10 09:20:34;;;;;;;5.15;0.38;;;14.80;99.90;;;;;;5487397;26;20483;-85
2024/04/10 09:23:09;;;;;;;0.10;0.10;;;14.80;99.90;;;;;;5479302;26;20033;-86
2024/04/10 09:25:37;;;;;;;0.65;0.65;;;14.80;99.90;;;;;;5510584;26;20042;-84
2024/04/10 09:28:06;;;;;;;0.10;0.10;;;13.80;99.90;;;;;;5524141;26;20034;-84
2024/04/10 09:30:34;;;;;;;0.13;0.13;;;12.90;99.90;;;;;;5471286;26;20033;-85
2024/04/10 09:33:02;;;;;;;5.07;1.17;;;12.70;99.90;;;;;;5502098;26;20038;-85
2024/04/10 09:35:29;;;;;;;1.95;0.90;;;12.50;99.90;;;;;;5513177;26;20042;-89
2024/04/10 09:37:57;;;;;;;1.00;0.75;;;12.40;99.90;;;;;;5513016;26;20041;-88
2024/04/10 09:40:27;;;;;;;1.05;0.98;;;12.60;99.90;;;;;;5513904;26;20049;-87
2024/04/10 09:43:03;;;;;;;0.30;0.30;;;12.70;99.90;;;;;;5517126;26;20033;-86
2024/04/10 09:45:42;;;;;;;0.20;0.20;;;13.10;99.90;;;;;;5502009;26;20377;-86
2024/04/10 09:48:09;;;;;;;0.20;0.20;;;13.20;99.90;;;;;;5517514;26;20053;-83
2024/04/10 09:50:37;;;;;;;1.88;0.85;;;13.20;99.90;;;;;;5517516;26;20045;-83
2024/04/10 09:53:05;;;;;;;0.73;0.43;;;13.00;99.90;;;;;;5518572;26;20076;-86
2024/04/10 09:55:38;;;;;;;0.20;0.20;;;12.90;99.90;;;;;;5479072;26;20038;-83
2024/04/10 09:58:08;;;;;;;0.63;0.63;;;12.90;99.90;;;;;;5506343;26;20039;-82
2024/04/10 10:00:35;;;;;;;0.45;0.45;;;12.90;99.90;;;;;;5511232;26;20378;-85
2024/04/10 10:03:03;;;;;;;4.82;1.38;;;12.90;99.90;;;;;;5521736;26;20033;-87
2024/04/10 10:05:29;;;;;;;0.25;0.25;;;13.10;99.90;;;;;;5512524;26;20033;-86
2024/04/10 10:08:03;;;;;;;0.35;0.35;;;13.40;99.90;;;;;;5518765;26;20029;-85
2024/04/10 10:10:30;;;;;;;0.10;0.10;;;13.60;99.90;;;;;;5502035;26;20039;-86
2024/04/10 10:13:24;;;;;;;13.57;0.82;;;14.90;99.90;;;;;;5502025;26;20386;-87
2024/04/10 10:15:58;;;;;;;0.57;0.30;;;15.90;99.90;;;;;;5514648;26;20041;-85
2024/04/10 10:18:26;;;;;;;0.20;0.20;;;15.20;99.90;;;;;;5529306;26;20016;-83
2024/04/10 10:21:11;;;;;;;0.70;0.20;;;15.00;99.90;;;;;;5540468;25;19994;-81
2024/04/10 10:23:39;;;;;;;0.47;0.47;;;15.10;99.90;;;;;;5522768;25;20021;-84
2024/04/10 10:26:08;;;;;;;5.68;0.25;;;14.90;99.90;;;;;;5532988;25;20016;-79
2024/04/10 10:28:37;;;;;;;0.20;0.20;;;15.30;99.90;;;;;;5532851;26;20016;-84
2024/04/10 10:31:08;;;;;;;0.10;0.10;;;14.90;99.90;;;;;;5532662;26;20025;-83
2024/04/10 10:33:36;;;;;;;0.20;0.20;;;15.40;99.90;;;;;;5525125;26;20010;-80
2024/04/10 10:36:04;;;;;;;0.30;0.22;;;16.10;99.90;;;;;;5520388;26;20020;-84
2024/04/10 10:38:30;;;;;;;0.10;0.10;;;16.10;99.90;;;;;;5509515;26;20031;-84
2024/04/10 10:41:04;;;;;;;0.43;0.32;;;15.10;99.90;;;;;;5519964;26;20037;-83
2024/04/10 10:43:30;;;;;;;0.10;0.10;;;14.60;99.90;;;;;;5516077;26;20902;-80
2024/04/10 10:45:56;;;;;;;0.20;0.20;;;14.40;99.90;;;;;;5508786;26;20385;-85
2024/04/10 10:48:23;;;;;;;0.65;0.65;;;13.90;99.90;;;;;;5485249;26;20402;-84
2024/04/10 10:50:56;;;;;;;0.52;0.40;;;13.70;99.90;;;;;;5512748;26;20338;-86
2024/04/10 10:53:23;;;;;;;0.10;0.10;;;13.70;99.90;;;;;;5472106;26;20045;-85
2024/04/10 10:55:56;;;;;;;0.40;0.40;;;13.70;99.90;;;;;;5522823;26;20045;-86
2024/04/10 10:58:25;;;;;;;0.20;0.20;;;13.80;99.90;;;;;;5513569;26;20039;-85
2024/04/10 11:00:51;;;;;;;0.20;0.20;;;13.70;98.30;;;;;;5503343;26;20381;-85
2024/04/10 11:03:19;;;;;;;0.20;0.20;;;13.70;98.40;;;;;;5521707;26;20033;-83
2024/04/10 11:05:46;;;;;;;0.13;0.13;;;13.80;98.20;;;;;;5513416;26;20037;-82
2024/04/10 11:08:12;;;;;;;0.10;0.10;;;13.80;96.20;;;;;;5488101;26;20037;-84
2024/04/10 11:10:38;;;;;;;0.10;0.10;;;14.20;96.60;;;;;;5517238;26;20041;-85
2024/04/10 11:13:07;;;;;;;0.10;0.10;;;14.60;95.60;;;;;;5470279;26;20041;-85
2024/04/10 11:15:45;;;;;;;0.30;0.30;;;14.90;95.60;;;;;;5510911;26;20030;-83
2024/04/10 11:18:18;;;;;;;0.10;0.10;;;14.80;96.80;;;;;;5515460;26;20037;-79
2024/04/10 11:20:45;;;;;;;0.28;0.28;;;14.20;97.10;;;;;;5519978;26;20037;-82
2024/04/10 11:23:12;;;;;;;0.10;0.10;;;13.90;96.70;;;;;;5474845;26;20034;-84
2024/04/10 11:25:38;;;;;;;1.38;0.40;;;13.60;94.00;;;;;;5497760;26;20050;-83
2024/04/10 11:28:04;;;;;;;0.10;0.10;;;13.60;97.60;;;;;;5510991;26;20038;-85
2024/04/10 11:30:32;;;;;;;0.10;0.10;;;13.80;98.70;;;;;;5515143;26;20494;-83
2024/04/10 11:32:58;;;;;;;2.10;1.02;;;14.00;99.00;;;;;;5523746;26;20038;-86
2024/04/10 11:35:26;;;;;;;1.50;1.27;;;14.20;98.40;;;;;;5482624;26;20027;-82
2024/04/10 11:37:55;;;;;;;0.38;0.38;;;14.20;97.70;;;;;;5504804;26;20037;-82
2024/04/10 11:40:22;;;;;;;0.13;0.13;;;14.10;97.70;;;;;;5481358;26;20347;-82
2024/04/10 11:42:49;;;;;;;1.30;0.68;;;14.20;99.10;;;;;;5514521;26;20030;-83
2024/04/10 11:45:16;;;;;;;0.10;0.10;;;14.50;99.90;;;;;;5518493;26;20382;-84
2024/04/10 11:47:43;;;;;;;0.10;0.10;;;15.10;99.90;;;;;;5513763;26;20038;-86
2024/04/10 11:50:13;;;;;;;0.15;0.15;;;15.40;93.90;;;;;;5502441;26;20037;-83
2024/04/10 11:52:39;;;;;;;0.40;0.40;;;15.10;96.90;;;;;;5509880;26;20389;-84
2024/04/10 11:55:07;;;;;;;0.10;0.10;;;15.10;98.00;;;;;;5510279;26;20049;-82
2024/04/10 11:57:34;;;;;;;0.38;0.38;;;15.30;95.60;;;;;;5513623;26;20351;-83
2024/04/10 12:00:03;;;;;;;0.52;0.52;;;15.10;94.10;;;;;;5524689;26;20389;-82
2024/04/10 12:02:38;;;;;;;0.10;0.10;;;15.30;94.70;;;;;;5471103;26;20034;-82
2024/04/10 12:05:05;;;;;;;0.40;0.40;;;15.60;90.00;;;;;;5512829;26;20378;-83
2024/04/10 12:07:33;;;;;;;0.10;0.10;;;15.60;90.30;;;;;;5520131;26;20057;-85
2024/04/10 12:10:00;;;;;;;3.75;0.30;;;16.20;85.50;;;;;;5523294;26;20037;-84
2024/04/10 12:12:28;;;;;;;0.20;0.20;;;16.30;85.90;;;;;;5514022;26;20037;-84
2024/04/10 12:14:55;;;;;;;0.25;0.20;;;15.80;75.80;;;;;;5515638;26;20037;-79
2024/04/10 12:17:21;;;;;;;0.10;0.10;;;15.50;76.80;;;;;;5504433;26;20045;-80
2024/04/10 12:19:47;;;;;;;0.10;0.10;;;15.00;72.90;;;;;;5515650;26;20045;-84
2024/04/10 12:22:13;;;;;;;0.10;0.10;;;15.00;76.70;;;;;;5492214;26;20132;-84
2024/04/10 12:24:40;;;;;;;0.15;0.15;;;15.00;74.90;;;;;;5513098;26;20041;-83
2024/04/10 12:27:06;;;;;;;0.10;0.10;;;15.10;74.20;;;;;;5509708;26;20034;-83
2024/04/10 12:29:33;;;;;;;0.10;0.10;;;15.20;76.90;;;;;;5478734;26;20349;-81
2024/04/10 12:31:59;;;;;;;2.28;0.45;;;15.20;76.90;;;;;;5521741;26;20029;-83
2024/04/10 12:34:26;;;;;;;0.10;0.10;;;15.10;72.50;;;;;;5527949;26;20033;-83
2024/04/10 12:39:37;;;;;;;3.13;0.40;;;15.60;68.80;;;;;;5503337;26;20038;-85
2024/04/10 12:42:04;;;;;;;0.98;0.55;;;15.60;66.90;;;;;;5517521;26;20041;-84
2024/04/10 12:44:31;;;;;;;0.10;0.10;;;15.80;68.40;;;;;;5512784;26;20038;-84
2024/04/10 12:47:01;;;;;;;0.10;0.10;;;16.40;77.40;;;;;;5519509;26;20029;-85
2024/04/10 12:49:38;;;;;;;0.25;0.25;;;16.80;71.00;;;;;;5515518;26;20386;-83
2024/04/10 12:52:05;;;;;;;0.10;0.10;;;16.70;74.40;;;;;;5511583;26;20041;-82
2024/04/10 12:54:31;;;;;;;0.55;0.55;;;17.00;74.00;;;;;;5514004;26;20045;-79
2024/04/10 12:56:58;;;;;;;0.10;0.10;;;17.40;69.30;;;;;;5522520;26;20045;-81
2024/04/10 12:59:24;;;;;;;0.85;0.63;;;17.50;64.50;;;;;;5519950;26;20036;-82
2024/04/10 13:01:53;;;;;;;0.10;0.10;;;17.20;64.80;;;;;;5518520;26;20364;-84